KLAS/LAS METAR and TAF weather

Enter ICAO airport designator
Station Type Date Time Source
KLAS METAR 2021/03/05 11:56 UTC NOAA

KLAS 051156Z 22004KT 10SM CLR 08/M06 A3027 RMK AO2 SLP244 T00831056 10122 20083 55006


Station Type Date Time Source
KLAS Decoded METAR 2021/03/05 11:56 UTC NOAA

MCCARRAN INTERNATIONAL AIRPORT , NV, United States (KLAS) 36-07N 115-16W 636M
Mar 05, 2021 - 06:56 AM EST / 2021.03.05 1156 UTC
Wind: from the SW (220 degrees) at 5 MPH (4 KT):0
Visibility: 10 mile(s):0
Sky conditions: clear
Temperature: 46.9 F (8.3 C)
Dew Point: 21.9 F (-5.6 C)
Relative Humidity: 36%
Pressure (altimeter): 30.27 in. Hg (1025 hPa)
Pressure tendency: 0.02 inches (0.6 hPa) lower than three hours ago
ob: KLAS 051156Z 22004KT 10SM CLR 08/M06 A3027 RMK AO2 SLP244 T00831056 10122 20083 55006
cycle: 12

Station Type Date Time Source
KLAS TAF 2021/03/05 12:22 UTC NOAA

TAF KLAS 051120Z 0512/0618 23006KT P6SM SKC
FM051800 07005KT P6SM SKC
FM060300 22007KT P6SM FEW250

Example: see airport list